createdAt,value
2018-09-02T00:01:23.418Z,13.47
2018-09-02T00:03:54.509Z,12.77
2018-09-02T00:06:25.957Z,13.57
2018-09-02T00:08:57.297Z,13.40
2018-09-02T00:11:28.773Z,13.53
2018-09-02T00:13:59.941Z,12.63
2018-09-02T00:16:31.426Z,12.83
2018-09-02T00:19:02.560Z,13.40
2018-09-02T00:21:34.955Z,13.50
2018-09-02T00:24:06.760Z,13.13
2018-09-02T00:26:38.720Z,12.93
2018-09-02T00:29:09.829Z,13.00
2018-09-02T00:31:41.627Z,12.33
2018-09-02T00:34:12.861Z,13.57
2018-09-02T00:36:44.481Z,12.83
2018-09-02T00:39:15.032Z,13.00
2018-09-02T00:41:45.851Z,13.63
2018-09-02T00:44:17.282Z,13.07
2018-09-02T00:46:49.229Z,13.70
2018-09-02T00:49:20.676Z,13.60
2018-09-02T00:51:51.643Z,12.30
2018-09-02T00:54:23.208Z,13.90
2018-09-02T00:56:54.984Z,13.30
2018-09-02T00:59:26.234Z,13.47
2018-09-02T01:01:57.540Z,12.80
2018-09-02T01:04:29.093Z,13.13
2018-09-02T01:07:00.110Z,13.53
2018-09-02T01:09:31.411Z,14.13
2018-09-02T01:12:02.986Z,14.23
2018-09-02T01:14:33.951Z,14.17
2018-09-02T01:17:05.558Z,14.00
2018-09-02T01:19:36.943Z,13.83
2018-09-02T01:22:08.221Z,14.77
2018-09-02T01:24:39.405Z,14.07
2018-09-02T01:27:09.853Z,14.23
2018-09-02T01:29:41.694Z,13.80
2018-09-02T01:32:12.503Z,15.43
2018-09-02T01:34:43.701Z,15.33
2018-09-02T01:37:15.124Z,14.80
2018-09-02T01:39:46.616Z,15.00
2018-09-02T01:42:17.083Z,15.70
2018-09-02T01:44:48.416Z,15.10
2018-09-02T01:47:19.174Z,16.23
2018-09-02T01:49:50.672Z,15.77
2018-09-02T01:52:22.129Z,15.40
2018-09-02T01:54:53.184Z,15.53
2018-09-02T01:57:24.725Z,15.27
2018-09-02T01:59:55.796Z,16.10
2018-09-02T02:02:26.779Z,16.00
2018-09-02T02:04:58.269Z,16.53
2018-09-02T02:07:29.633Z,14.77
2018-09-02T02:10:01.065Z,15.93
2018-09-02T02:12:32.638Z,15.93
2018-09-02T02:15:03.953Z,14.97
2018-09-02T02:17:35.281Z,15.27
2018-09-02T02:20:06.159Z,15.20
2018-09-02T02:22:37.606Z,15.47
2018-09-02T02:25:08.627Z,14.80
2018-09-02T02:27:40.098Z,15.33
2018-09-02T02:30:11.567Z,15.37
2018-09-02T02:32:43.061Z,14.60
2018-09-02T02:35:13.647Z,15.03
2018-09-02T02:37:44.899Z,14.70
2018-09-02T02:40:16.065Z,15.23
2018-09-02T02:42:47.536Z,15.10
2018-09-02T02:45:18.837Z,15.03
2018-09-02T02:47:49.945Z,15.93
2018-09-02T02:50:21.279Z,14.80
2018-09-02T02:52:58.178Z,14.23
2018-09-02T02:55:29.677Z,15.10
2018-09-02T02:58:00.858Z,14.00
2018-09-02T03:00:32.578Z,14.07
2018-09-02T03:03:03.935Z,14.67
2018-09-02T03:05:35.554Z,14.70
2018-09-02T03:08:06.815Z,14.23
2018-09-02T03:10:38.110Z,15.23
2018-09-02T03:13:09.601Z,13.90
2018-09-02T03:15:40.468Z,14.20
2018-09-02T03:18:11.790Z,13.77
2018-09-02T03:20:43.080Z,14.67
2018-09-02T03:23:13.493Z,14.73
2018-09-02T03:25:44.479Z,14.43
2018-09-02T03:28:15.322Z,13.83
2018-09-02T03:30:47.362Z,13.53
2018-09-02T03:33:17.944Z,15.50
2018-09-02T03:35:49.493Z,14.27
2018-09-02T03:38:20.757Z,14.50
2018-09-02T03:40:52.051Z,14.13
2018-09-02T03:43:24.095Z,15.13
2018-09-02T03:45:55.553Z,14.97
2018-09-02T03:48:26.572Z,15.30
2018-09-02T03:50:58.441Z,15.93
2018-09-02T03:53:29.549Z,15.77
2018-09-02T03:56:00.034Z,16.10
2018-09-02T03:58:31.013Z,13.93
2018-09-02T04:01:01.965Z,14.50
2018-09-02T04:03:33.580Z,14.37
2018-09-02T04:06:04.732Z,14.90
2018-09-02T04:08:36.992Z,14.57
2018-09-02T04:11:09.106Z,15.57
2018-09-02T04:13:40.736Z,15.23
2018-09-02T04:16:11.800Z,15.23
2018-09-02T04:18:43.220Z,14.23
2018-09-02T04:21:14.283Z,14.80
2018-09-02T04:23:45.938Z,14.53
2018-09-02T04:26:16.341Z,14.73
2018-09-02T04:28:48.062Z,14.87
2018-09-02T04:31:19.464Z,15.17
2018-09-02T04:33:50.869Z,15.43
2018-09-02T04:36:22.393Z,15.60
2018-09-02T04:38:53.328Z,14.87
2018-09-02T04:41:25.355Z,14.33
2018-09-02T04:43:56.688Z,15.23
2018-09-02T04:46:28.376Z,15.33
2018-09-02T04:48:59.732Z,14.53
2018-09-02T04:51:31.264Z,14.97
2018-09-02T04:54:02.553Z,14.47
2018-09-02T04:56:34.618Z,14.13
2018-09-02T04:59:06.439Z,16.17
2018-09-02T05:01:38.830Z,15.43
2018-09-02T05:04:09.994Z,14.03
2018-09-02T05:06:42.673Z,14.53
2018-09-02T05:09:12.999Z,13.97
2018-09-02T05:11:43.330Z,14.30
2018-09-02T05:14:13.696Z,15.17
2018-09-02T05:16:43.797Z,16.50
2018-09-02T05:19:14.298Z,13.90
2018-09-02T05:21:44.557Z,14.63
2018-09-02T05:24:14.840Z,15.07
2018-09-02T05:26:45.263Z,13.87
2018-09-02T05:29:15.281Z,13.80
2018-09-02T05:31:45.611Z,15.33
2018-09-02T05:34:16.407Z,14.40
2018-09-02T05:36:47.611Z,14.60
2018-09-02T05:39:18.853Z,14.13
2018-09-02T05:41:50.115Z,14.13
2018-09-02T05:44:22.169Z,13.67
2018-09-02T05:46:52.186Z,14.17
2018-09-02T05:49:22.235Z,13.37
2018-09-02T05:51:52.773Z,13.47
2018-09-02T05:54:22.975Z,15.33
2018-09-02T05:56:54.312Z,14.40
2018-09-02T05:59:24.566Z,13.03
2018-09-02T06:01:54.593Z,15.33
2018-09-02T06:04:25.761Z,13.97
2018-09-02T06:06:57.326Z,13.20
2018-09-02T06:09:28.646Z,14.37
2018-09-02T06:11:59.493Z,15.87
2018-09-02T06:14:31.990Z,14.77
2018-09-02T06:17:03.329Z,15.27
2018-09-02T06:19:33.787Z,13.63
2018-09-02T06:22:04.870Z,13.27
2018-09-02T06:24:35.873Z,13.80
2018-09-02T06:27:07.369Z,15.77
2018-09-02T06:29:38.513Z,15.17
2018-09-02T06:32:10.187Z,13.00
2018-09-02T06:34:42.970Z,14.13
2018-09-02T06:37:15.483Z,12.87
2018-09-02T06:39:47.076Z,12.70
2018-09-02T06:42:17.650Z,13.97
2018-09-02T06:44:49.019Z,13.23
2018-09-02T06:47:20.729Z,12.43
2018-09-02T06:49:51.454Z,13.13
2018-09-02T06:52:22.658Z,11.30
2018-09-02T06:54:53.265Z,11.77
2018-09-02T06:57:24.025Z,11.60
2018-09-02T06:59:55.364Z,11.77
2018-09-02T07:02:27.083Z,12.00
2018-09-02T07:04:58.331Z,12.60
2018-09-02T07:07:29.619Z,11.40
2018-09-02T07:10:01.010Z,13.60
2018-09-02T07:12:32.268Z,13.43
2018-09-02T07:15:02.555Z,12.23
2018-09-02T07:17:33.917Z,12.47
2018-09-02T07:20:04.670Z,15.23
2018-09-02T07:22:36.167Z,16.17
2018-09-02T07:25:07.707Z,16.57
2018-09-02T07:27:38.683Z,13.53
2018-09-02T07:30:09.043Z,13.47
2018-09-02T07:32:40.330Z,12.13
2018-09-02T07:35:11.666Z,11.43
2018-09-02T07:37:42.829Z,11.27
2018-09-02T07:40:14.412Z,10.97
2018-09-02T07:42:45.624Z,12.43
2018-09-02T07:45:17.650Z,11.87
2018-09-02T07:47:48.950Z,11.93
2018-09-02T07:50:20.536Z,11.63
2018-09-02T07:52:51.965Z,11.70
2018-09-02T07:55:23.099Z,11.70
2018-09-02T07:57:54.644Z,11.33
2018-09-02T08:00:25.372Z,12.00
2018-09-02T08:02:56.938Z,12.80
2018-09-02T08:05:28.127Z,11.17
2018-09-02T08:07:59.367Z,11.17
2018-09-02T08:10:30.642Z,11.10
2018-09-02T08:13:02.442Z,11.13
2018-09-02T08:15:34.384Z,11.07
2018-09-02T08:18:06.092Z,11.10
2018-09-02T08:20:37.869Z,10.77
2018-09-02T08:23:09.335Z,10.50
2018-09-02T08:25:40.726Z,10.27
2018-09-02T08:28:12.761Z,11.37
2018-09-02T08:30:44.444Z,10.93
2018-09-02T08:33:15.271Z,10.80
2018-09-02T08:35:46.720Z,9.77
2018-09-02T08:38:17.936Z,11.40
2018-09-02T08:40:49.471Z,10.17
2018-09-02T08:43:21.108Z,10.43
2018-09-02T08:45:52.739Z,9.67
2018-09-02T08:48:24.007Z,10.08
2018-09-02T08:50:59.714Z,9.65
2018-09-02T08:53:31.403Z,10.75
2018-09-02T08:56:02.681Z,10.25
2018-09-02T08:58:34.509Z,9.73
2018-09-02T09:01:06.019Z,9.75
2018-09-02T09:03:37.228Z,10.10
2018-09-02T09:06:08.952Z,10.55
2018-09-02T09:08:39.995Z,9.83
2018-09-02T09:11:11.257Z,9.83
2018-09-02T09:13:42.758Z,9.58
2018-09-02T09:16:14.494Z,9.78
2018-09-02T09:18:46.005Z,8.85
2018-09-02T09:21:17.309Z,9.80
2018-09-02T09:23:48.882Z,9.78
2018-09-02T09:26:20.558Z,9.15
2018-09-02T09:28:52.552Z,9.93
2018-09-02T09:31:24.049Z,8.78
2018-09-02T09:33:55.823Z,9.65
2018-09-02T09:36:27.809Z,9.68
2018-09-02T09:38:59.484Z,10.35
2018-09-02T09:41:31.719Z,10.20
2018-09-02T09:44:02.613Z,9.73
2018-09-02T09:46:34.441Z,10.10
2018-09-02T09:49:06.416Z,9.10
2018-09-02T09:51:37.727Z,8.88
2018-09-02T09:54:10.220Z,8.58
2018-09-02T09:56:42.261Z,8.48
2018-09-02T09:59:13.093Z,8.98
2018-09-02T10:01:44.649Z,8.68
2018-09-02T10:04:16.271Z,9.30
2018-09-02T10:06:47.908Z,9.38
2018-09-02T10:09:18.499Z,8.15
2018-09-02T10:11:50.337Z,8.48
2018-09-02T10:14:21.883Z,8.68
2018-09-02T10:16:53.741Z,8.78
2018-09-02T10:19:25.377Z,8.95
2018-09-02T10:21:57.586Z,8.80
2018-09-02T10:24:30.136Z,8.18
2018-09-02T10:27:01.697Z,8.63
2018-09-02T10:29:33.231Z,9.00
2018-09-02T10:32:04.768Z,8.70
2018-09-02T10:34:36.897Z,8.25
2018-09-02T10:37:08.510Z,8.75
2018-09-02T10:39:38.700Z,8.45
2018-09-02T10:42:09.531Z,8.75
2018-09-02T10:44:39.872Z,7.42
2018-09-02T10:47:10.246Z,8.40
2018-09-02T10:49:41.271Z,7.37
2018-09-02T10:52:12.087Z,8.20
2018-09-02T10:54:42.985Z,7.30
2018-09-02T10:57:13.290Z,7.53
2018-09-02T10:59:43.832Z,7.92
2018-09-02T11:02:14.562Z,7.70
2018-09-02T11:04:44.856Z,8.03
2018-09-02T11:07:15.915Z,7.90
2018-09-02T11:09:46.821Z,7.35
2018-09-02T11:12:17.239Z,7.80
2018-09-02T11:14:47.656Z,7.20
2018-09-02T11:17:17.856Z,8.33
2018-09-02T11:19:48.031Z,8.30
2018-09-02T11:22:18.644Z,7.80
2018-09-02T11:24:49.687Z,7.90
2018-09-02T11:27:20.922Z,7.67
2018-09-02T11:29:51.089Z,7.67
2018-09-02T11:32:21.593Z,8.08
2018-09-02T11:34:52.143Z,7.78
2018-09-02T11:37:22.841Z,7.62
2018-09-02T11:39:53.206Z,8.10
2018-09-02T11:42:23.301Z,8.00
2018-09-02T11:44:53.724Z,8.98
2018-09-02T11:47:24.904Z,8.13
2018-09-02T11:49:55.601Z,8.18
2018-09-02T11:52:26.091Z,8.33
2018-09-02T11:54:57.270Z,8.30
2018-09-02T11:57:28.544Z,8.45
2018-09-02T11:59:59.952Z,8.03
2018-09-02T12:02:30.122Z,8.30
2018-09-02T12:05:00.310Z,7.92
2018-09-02T12:07:31.090Z,8.13
2018-09-02T12:10:01.335Z,8.05
2018-09-02T12:12:31.684Z,8.55
2018-09-02T12:15:01.973Z,8.50
2018-09-02T12:17:32.368Z,8.20
2018-09-02T12:20:02.744Z,8.33
2018-09-02T12:22:33.488Z,8.08
2018-09-02T12:25:03.820Z,8.38
2018-09-02T12:27:34.372Z,7.72
2018-09-02T12:30:05.518Z,8.18
2018-09-02T12:32:36.035Z,7.85
2018-09-02T12:35:06.270Z,8.65
2018-09-02T12:37:36.661Z,8.00
2018-09-02T12:40:06.935Z,8.88
2018-09-02T12:42:37.323Z,8.60
2018-09-02T12:45:07.723Z,8.23
2018-09-02T12:47:38.493Z,7.70
2018-09-02T12:50:09.314Z,8.25
2018-09-02T12:52:39.868Z,8.20
2018-09-02T12:55:11.172Z,7.55
2018-09-02T12:57:41.717Z,8.28
2018-09-02T13:00:11.926Z,8.25
2018-09-02T13:02:42.394Z,8.08
2018-09-02T13:05:12.591Z,8.30
2018-09-02T13:07:43.170Z,7.92
2018-09-02T13:10:14.003Z,8.38
2018-09-02T13:12:44.873Z,8.83
2018-09-02T13:15:15.786Z,8.10
2018-09-02T13:17:46.505Z,8.25
2018-09-02T13:20:17.313Z,8.25
2018-09-02T13:22:48.488Z,7.83
2018-09-02T13:25:18.962Z,7.95
2018-09-02T13:27:50.186Z,8.75
2018-09-02T13:30:20.717Z,8.38
2018-09-02T13:32:51.488Z,8.43
2018-09-02T13:35:22.468Z,8.50
2018-09-02T13:37:53.665Z,8.38
2018-09-02T13:40:23.979Z,8.33
2018-09-02T13:42:54.948Z,7.67
2018-09-02T13:45:25.259Z,8.58
2018-09-02T13:47:56.736Z,8.08
2018-09-02T13:50:27.319Z,8.00
2018-09-02T13:52:58.301Z,8.13
2018-09-02T13:55:29.005Z,7.90
2018-09-02T13:57:59.368Z,9.15
2018-09-02T14:00:29.481Z,7.37
2018-09-02T14:03:00.037Z,11.08
2018-09-02T14:05:30.547Z,8.08
2018-09-02T14:08:01.816Z,8.33
2018-09-02T14:10:31.948Z,8.10
2018-09-02T14:13:02.203Z,7.85
2018-09-02T14:15:32.389Z,8.73
2018-09-02T14:18:02.852Z,8.50
2018-09-02T14:20:32.908Z,8.65
2018-09-02T14:23:04.388Z,7.50
2018-09-02T14:25:34.389Z,6.80
2018-09-02T14:28:04.191Z,6.47
2018-09-02T14:30:34.417Z,6.10
2018-09-02T14:33:04.765Z,6.83
2018-09-02T14:35:34.633Z,6.83
2018-09-02T14:38:05.025Z,6.22
2018-09-02T14:40:35.554Z,5.90
2018-09-02T14:43:05.789Z,6.33
2018-09-02T14:45:36.661Z,6.85
2018-09-02T14:48:07.403Z,5.25
2018-09-02T14:50:37.887Z,7.75
2018-09-02T14:53:08.467Z,6.33
2018-09-02T14:55:38.777Z,6.53
2018-09-02T14:58:09.260Z,8.25
2018-09-02T15:00:39.483Z,5.65
2018-09-02T15:03:09.601Z,6.50
2018-09-02T15:05:39.826Z,6.45
2018-09-02T15:08:10.066Z,6.05
2018-09-02T15:10:40.355Z,7.28
2018-09-02T15:13:10.871Z,6.85
2018-09-02T15:15:41.249Z,7.25
2018-09-02T15:18:11.470Z,6.15
2018-09-02T15:20:41.701Z,6.62
2018-09-02T15:23:11.837Z,7.22
2018-09-02T15:25:42.187Z,7.17
2018-09-02T15:28:12.623Z,7.17
2018-09-02T15:30:43.225Z,7.00
2018-09-02T15:33:13.761Z,6.67
2018-09-02T15:35:44.043Z,6.92
2018-09-02T15:38:14.178Z,8.13
2018-09-02T15:40:44.295Z,7.22
2018-09-02T15:43:14.525Z,7.12
2018-09-02T15:45:44.717Z,7.00
2018-09-02T15:48:15.091Z,7.75
2018-09-02T15:50:45.694Z,6.97
2018-09-02T15:53:16.045Z,7.40
2018-09-02T15:55:46.518Z,7.28
2018-09-02T15:58:17.109Z,7.50
2018-09-02T16:00:47.667Z,7.60
2018-09-02T16:03:17.902Z,6.60
2018-09-02T16:05:48.283Z,7.72
2018-09-02T16:08:18.565Z,7.30
2018-09-02T16:10:48.699Z,7.35
2018-09-02T16:13:18.944Z,7.75
2018-09-02T16:15:49.145Z,7.85
2018-09-02T16:18:19.487Z,8.05
2018-09-02T16:20:49.803Z,7.20
2018-09-02T16:23:20.234Z,7.40
2018-09-02T16:25:50.653Z,7.25
2018-09-02T16:28:20.824Z,7.10
2018-09-02T16:30:51.060Z,7.70
2018-09-02T16:33:21.644Z,7.30
2018-09-02T16:35:52.011Z,7.75
2018-09-02T16:38:22.341Z,7.67
2018-09-02T16:40:52.478Z,7.78
2018-09-02T16:43:22.514Z,7.30
2018-09-02T16:45:52.745Z,7.83
2018-09-02T16:48:24.401Z,7.78
2018-09-02T16:50:54.905Z,7.78
2018-09-02T16:53:25.243Z,8.10
2018-09-02T16:55:55.784Z,7.80
2018-09-02T16:58:25.983Z,8.13
2018-09-02T17:00:56.040Z,8.03
2018-09-02T17:03:31.090Z,8.53
2018-09-02T17:06:01.360Z,7.85
2018-09-02T17:08:31.919Z,8.57
2018-09-02T17:11:02.121Z,8.17
2018-09-02T17:13:32.299Z,8.10
2018-09-02T17:16:02.424Z,7.80
2018-09-02T17:18:32.644Z,7.97
2018-09-02T17:21:02.817Z,8.47
2018-09-02T17:23:32.933Z,8.30
2018-09-02T17:26:03.164Z,8.13
2018-09-02T17:28:33.381Z,8.47
2018-09-02T17:31:03.486Z,8.30
2018-09-02T17:33:34.716Z,8.17
2018-09-02T17:36:05.235Z,8.27
2018-09-02T17:38:35.508Z,7.97
2018-09-02T17:41:05.761Z,7.93
2018-09-02T17:43:35.876Z,8.27
2018-09-02T17:46:06.147Z,8.20
2018-09-02T17:48:37.213Z,8.93
2018-09-02T17:51:07.477Z,8.20
2018-09-02T17:53:37.787Z,8.70
2018-09-02T17:56:08.145Z,8.80
2018-09-02T17:58:38.378Z,9.17
2018-09-02T18:01:08.804Z,8.93
2018-09-02T18:03:39.232Z,8.57
2018-09-02T18:06:09.655Z,9.37
2018-09-02T18:08:40.334Z,8.90
2018-09-02T18:11:10.724Z,8.90
2018-09-02T18:13:41.342Z,8.17
2018-09-02T18:16:11.984Z,9.30
2018-09-02T18:18:42.450Z,8.37
2018-09-02T18:21:12.733Z,9.00
2018-09-02T18:23:43.025Z,8.90
2018-09-02T18:26:13.470Z,9.17
2018-09-02T18:28:45.614Z,8.50
2018-09-02T18:31:15.953Z,8.90
2018-09-02T18:33:46.300Z,8.83
2018-09-02T18:36:16.695Z,9.20
2018-09-02T18:38:46.876Z,9.60
2018-09-02T18:41:16.952Z,8.40
2018-09-02T18:43:47.287Z,8.77
2018-09-02T18:46:17.651Z,8.90
2018-09-02T18:48:48.181Z,8.77
2018-09-02T18:51:18.705Z,9.30
2018-09-02T18:53:49.009Z,8.87
2018-09-02T18:56:19.680Z,9.53
2018-09-02T18:58:50.535Z,9.03
2018-09-02T19:01:20.763Z,9.03
2018-09-02T19:03:51.055Z,8.70
2018-09-02T19:06:21.021Z,9.17
2018-09-02T19:08:51.833Z,10.17
2018-09-02T19:11:22.418Z,8.57
2018-09-02T19:13:53.181Z,9.10
2018-09-02T19:16:23.529Z,8.93
2018-09-02T19:18:53.822Z,8.93
2018-09-02T19:21:24.178Z,9.47
2018-09-02T19:23:55.056Z,8.83
2018-09-02T19:26:25.913Z,9.37
2018-09-02T19:28:56.336Z,8.97
2018-09-02T19:31:26.642Z,9.57
2018-09-02T19:33:57.191Z,10.20
2018-09-02T19:36:27.601Z,9.10
2018-09-02T19:38:57.781Z,9.10
2018-09-02T19:41:28.023Z,9.00
2018-09-02T19:43:58.328Z,9.30
2018-09-02T19:46:28.948Z,9.50
2018-09-02T19:48:59.278Z,9.93
2018-09-02T19:51:29.451Z,10.67
2018-09-02T19:53:59.658Z,9.90
2018-09-02T19:56:31.901Z,10.17
2018-09-02T19:59:03.500Z,10.33
2018-09-02T20:01:33.688Z,10.43
2018-09-02T20:04:03.834Z,10.00
2018-09-02T20:06:34.113Z,9.93
2018-09-02T20:09:07.762Z,9.57
2018-09-02T20:11:38.417Z,10.53
2018-09-02T20:14:08.893Z,10.00
2018-09-02T20:16:39.512Z,12.13
2018-09-02T20:19:10.005Z,11.63
2018-09-02T20:21:40.242Z,11.87
2018-09-02T20:24:10.596Z,11.70
2018-09-02T20:26:41.081Z,11.70
2018-09-02T20:29:11.514Z,12.47
2018-09-02T20:31:43.530Z,12.87
2018-09-02T20:34:14.775Z,12.23
2018-09-02T20:36:45.277Z,11.97
2018-09-02T20:39:15.563Z,11.93
2018-09-02T20:41:45.959Z,11.57
2018-09-02T20:44:15.943Z,12.00
2018-09-02T20:46:46.451Z,11.90
2018-09-02T20:49:17.560Z,11.53
2018-09-02T20:51:48.015Z,10.97
2018-09-02T20:54:18.290Z,11.10
2018-09-02T20:56:48.749Z,11.60
2018-09-02T20:59:19.019Z,11.90
2018-09-02T21:01:49.262Z,11.20
2018-09-02T21:04:19.500Z,11.50
2018-09-02T21:06:50.622Z,11.33
2018-09-02T21:09:21.344Z,11.17
2018-09-02T21:11:51.625Z,10.43
2018-09-02T21:14:22.910Z,11.47
2018-09-02T21:16:53.495Z,11.13
2018-09-02T21:19:25.470Z,10.73
2018-09-02T21:21:57.525Z,10.33
2018-09-02T21:24:29.464Z,9.97
2018-09-02T21:27:01.379Z,9.57
2018-09-02T21:29:32.899Z,9.63
2018-09-02T21:32:03.788Z,9.77
2018-09-02T21:34:35.426Z,9.47
2018-09-02T21:37:07.932Z,8.80
2018-09-02T21:39:39.105Z,8.80
2018-09-02T21:42:10.194Z,10.07
2018-09-02T21:44:41.564Z,9.50
2018-09-02T21:47:12.264Z,9.57
2018-09-02T21:49:44.778Z,9.80
2018-09-02T21:52:16.206Z,10.03
2018-09-02T21:54:46.805Z,9.73
2018-09-02T21:57:18.054Z,9.90
2018-09-02T21:59:49.630Z,10.17
2018-09-02T22:02:21.178Z,10.23
2018-09-02T22:04:52.351Z,10.07
2018-09-02T22:07:23.584Z,9.73
2018-09-02T22:09:54.821Z,10.03
2018-09-02T22:12:26.072Z,10.10
2018-09-02T22:14:57.767Z,10.23
2018-09-02T22:17:29.844Z,10.10
2018-09-02T22:20:01.556Z,9.37
2018-09-02T22:22:32.070Z,9.17
2018-09-02T22:25:03.372Z,9.97
2018-09-02T22:27:34.934Z,10.10
2018-09-02T22:30:06.356Z,9.70
2018-09-02T22:32:37.590Z,9.20
2018-09-02T22:35:08.967Z,9.23
2018-09-02T22:37:39.766Z,9.77
2018-09-02T22:40:10.878Z,9.87
2018-09-02T22:42:41.797Z,9.43
2018-09-02T22:45:13.235Z,9.77
2018-09-02T22:47:44.690Z,8.97
2018-09-02T22:50:15.491Z,9.47
2018-09-02T22:52:47.091Z,9.10
2018-09-02T22:55:18.220Z,9.30
2018-09-02T22:57:49.766Z,8.70
2018-09-02T23:00:20.731Z,9.50
2018-09-02T23:02:52.058Z,9.57
2018-09-02T23:05:23.335Z,9.20
2018-09-02T23:07:54.367Z,9.20
2018-09-02T23:10:25.801Z,8.77
2018-09-02T23:12:57.134Z,8.60
2018-09-02T23:15:27.979Z,9.17
2018-09-02T23:17:59.767Z,9.10
2018-09-02T23:20:30.916Z,9.20
2018-09-02T23:23:02.303Z,8.60
2018-09-02T23:25:33.537Z,9.53
2018-09-02T23:28:04.431Z,10.27
2018-09-02T23:30:35.596Z,9.10
2018-09-02T23:33:06.857Z,9.87
2018-09-02T23:35:37.993Z,9.43
2018-09-02T23:38:09.094Z,9.00
2018-09-02T23:40:40.618Z,9.37
2018-09-02T23:43:12.436Z,8.80
2018-09-02T23:45:43.847Z,9.10
2018-09-02T23:48:14.363Z,9.70
2018-09-02T23:50:45.677Z,10.30
2018-09-02T23:53:16.383Z,8.53
2018-09-02T23:55:47.448Z,9.67
2018-09-02T23:58:18.655Z,9.67
